sensor_id;sensor_type;location;lat;lon;timestamp;temperature;humidity
17423;DHT22;8829;47.932;7.810;2023-05-07T00:01:35;12.60;99.90
17423;DHT22;8829;47.932;7.810;2023-05-07T00:04:02;12.50;99.90
17423;DHT22;8829;47.932;7.810;2023-05-07T00:06:29;12.50;99.90
17423;DHT22;8829;47.932;7.810;2023-05-07T00:08:56;12.60;99.90
17423;DHT22;8829;47.932;7.810;2023-05-07T00:11:23;12.80;99.90
17423;DHT22;8829;47.932;7.810;2023-05-07T00:13:51;12.80;99.90
17423;DHT22;8829;47.932;7.810;2023-05-07T00:16:19;12.80;99.90
17423;DHT22;8829;47.932;7.810;2023-05-07T00:18:46;12.90;99.90
17423;DHT22;8829;47.932;7.810;2023-05-07T00:21:13;12.80;99.90
17423;DHT22;8829;47.932;7.810;2023-05-07T00:23:39;12.70;99.90
17423;DHT22;8829;47.932;7.810;2023-05-07T00:26:06;12.80;99.90
17423;DHT22;8829;47.932;7.810;2023-05-07T00:28:33;12.70;99.90
17423;DHT22;8829;47.932;7.810;2023-05-07T00:30:59;12.80;99.90
17423;DHT22;8829;47.932;7.810;2023-05-07T00:33:27;12.70;99.90
17423;DHT22;8829;47.932;7.810;2023-05-07T00:35:54;12.70;99.90
17423;DHT22;8829;47.932;7.810;2023-05-07T00:38:21;12.70;99.90
17423;DHT22;8829;47.932;7.810;2023-05-07T00:40:47;12.70;99.90
17423;DHT22;8829;47.932;7.810;2023-05-07T00:43:14;12.70;99.90
17423;DHT22;8829;47.932;7.810;2023-05-07T00:45:41;12.70;99.90
17423;DHT22;8829;47.932;7.810;2023-05-07T00:48:08;12.70;99.90
17423;DHT22;8829;47.932;7.810;2023-05-07T00:50:36;12.80;99.90
17423;DHT22;8829;47.932;7.810;2023-05-07T00:53:02;12.80;99.90
17423;DHT22;8829;47.932;7.810;2023-05-07T00:55:31;12.80;99.90
17423;DHT22;8829;47.932;7.810;2023-05-07T00:57:58;12.90;99.90
17423;DHT22;8829;47.932;7.810;2023-05-07T01:00:25;12.90;99.90
17423;DHT22;8829;47.932;7.810;2023-05-07T01:02:52;12.90;99.90
17423;DHT22;8829;47.932;7.810;2023-05-07T01:05:20;12.90;99.90
17423;DHT22;8829;47.932;7.810;2023-05-07T01:07:51;13.00;99.90
17423;DHT22;8829;47.932;7.810;2023-05-07T01:10:19;13.00;99.90
17423;DHT22;8829;47.932;7.810;2023-05-07T01:12:46;13.00;99.90
17423;DHT22;8829;47.932;7.810;2023-05-07T01:15:15;13.00;99.90
17423;DHT22;8829;47.932;7.810;2023-05-07T01:17:43;12.90;99.90
17423;DHT22;8829;47.932;7.810;2023-05-07T01:20:10;12.80;99.90
17423;DHT22;8829;47.932;7.810;2023-05-07T01:22:39;12.70;99.90
17423;DHT22;8829;47.932;7.810;2023-05-07T01:25:07;12.70;99.90
17423;DHT22;8829;47.932;7.810;2023-05-07T01:27:35;12.80;99.90
17423;DHT22;8829;47.932;7.810;2023-05-07T01:30:02;12.80;99.90
17423;DHT22;8829;47.932;7.810;2023-05-07T01:32:33;12.70;99.90
17423;DHT22;8829;47.932;7.810;2023-05-07T01:35:04;12.50;99.90
17423;DHT22;8829;47.932;7.810;2023-05-07T01:37:32;12.40;99.90
17423;DHT22;8829;47.932;7.810;2023-05-07T01:40:01;12.30;99.90
17423;DHT22;8829;47.932;7.810;2023-05-07T01:42:29;12.30;99.90
17423;DHT22;8829;47.932;7.810;2023-05-07T01:44:56;12.30;99.90
17423;DHT22;8829;47.932;7.810;2023-05-07T01:47:23;12.40;99.90
17423;DHT22;8829;47.932;7.810;2023-05-07T01:49:50;12.40;99.90
17423;DHT22;8829;47.932;7.810;2023-05-07T01:52:17;12.40;99.90
17423;DHT22;8829;47.932;7.810;2023-05-07T01:54:44;12.30;99.90
17423;DHT22;8829;47.932;7.810;2023-05-07T01:57:12;12.30;99.90
17423;DHT22;8829;47.932;7.810;2023-05-07T01:59:39;12.10;99.90
17423;DHT22;8829;47.932;7.810;2023-05-07T02:02:05;12.10;99.90
17423;DHT22;8829;47.932;7.810;2023-05-07T02:04:32;12.10;99.90
17423;DHT22;8829;47.932;7.810;2023-05-07T02:06:59;12.10;99.90
17423;DHT22;8829;47.932;7.810;2023-05-07T02:09:25;12.20;99.90
17423;DHT22;8829;47.932;7.810;2023-05-07T02:11:52;12.20;99.90
17423;DHT22;8829;47.932;7.810;2023-05-07T02:14:20;12.10;99.90
17423;DHT22;8829;47.932;7.810;2023-05-07T02:16:47;12.20;99.90
17423;DHT22;8829;47.932;7.810;2023-05-07T02:19:13;12.20;99.90
17423;DHT22;8829;47.932;7.810;2023-05-07T02:21:40;12.20;99.90
17423;DHT22;8829;47.932;7.810;2023-05-07T02:24:07;12.20;99.90
17423;DHT22;8829;47.932;7.810;2023-05-07T02:26:33;12.20;99.90
17423;DHT22;8829;47.932;7.810;2023-05-07T02:29:00;12.20;99.90
17423;DHT22;8829;47.932;7.810;2023-05-07T02:31:28;12.20;99.90
17423;DHT22;8829;47.932;7.810;2023-05-07T02:33:55;12.20;99.90
17423;DHT22;8829;47.932;7.810;2023-05-07T02:36:21;12.20;99.90
17423;DHT22;8829;47.932;7.810;2023-05-07T02:38:48;12.20;99.90
17423;DHT22;8829;47.932;7.810;2023-05-07T02:41:15;12.30;99.90
17423;DHT22;8829;47.932;7.810;2023-05-07T02:43:41;12.40;99.90
17423;DHT22;8829;47.932;7.810;2023-05-07T02:46:09;12.30;99.90
17423;DHT22;8829;47.932;7.810;2023-05-07T02:48:37;12.30;99.90
17423;DHT22;8829;47.932;7.810;2023-05-07T02:51:04;12.30;99.90
17423;DHT22;8829;47.932;7.810;2023-05-07T02:53:31;12.30;99.90
17423;DHT22;8829;47.932;7.810;2023-05-07T02:56:00;12.30;99.90
17423;DHT22;8829;47.932;7.810;2023-05-07T02:58:27;12.20;99.90
17423;DHT22;8829;47.932;7.810;2023-05-07T03:00:55;12.20;99.90
17423;DHT22;8829;47.932;7.810;2023-05-07T03:03:21;12.10;99.90
17423;DHT22;8829;47.932;7.810;2023-05-07T03:05:50;12.10;99.90
17423;DHT22;8829;47.932;7.810;2023-05-07T03:08:17;12.10;99.90
17423;DHT22;8829;47.932;7.810;2023-05-07T03:10:43;12.00;99.90
17423;DHT22;8829;47.932;7.810;2023-05-07T03:13:10;12.00;99.90
17423;DHT22;8829;47.932;7.810;2023-05-07T03:15:37;12.00;99.90
17423;DHT22;8829;47.932;7.810;2023-05-07T03:18:03;12.00;99.90
17423;DHT22;8829;47.932;7.810;2023-05-07T03:20:30;12.00;99.90
17423;DHT22;8829;47.932;7.810;2023-05-07T03:22:58;12.00;99.90
17423;DHT22;8829;47.932;7.810;2023-05-07T03:25:25;12.00;99.90
17423;DHT22;8829;47.932;7.810;2023-05-07T03:27:52;11.90;99.90
17423;DHT22;8829;47.932;7.810;2023-05-07T03:30:19;11.90;99.90
17423;DHT22;8829;47.932;7.810;2023-05-07T03:32:45;11.70;99.90
17423;DHT22;8829;47.932;7.810;2023-05-07T03:35:15;11.50;99.90
17423;DHT22;8829;47.932;7.810;2023-05-07T03:37:42;11.50;99.90
17423;DHT22;8829;47.932;7.810;2023-05-07T03:40:11;11.60;99.90
17423;DHT22;8829;47.932;7.810;2023-05-07T03:42:38;11.70;99.90
17423;DHT22;8829;47.932;7.810;2023-05-07T03:45:06;11.70;99.90
17423;DHT22;8829;47.932;7.810;2023-05-07T03:47:32;11.80;99.90
17423;DHT22;8829;47.932;7.810;2023-05-07T03:49:59;11.80;99.90
17423;DHT22;8829;47.932;7.810;2023-05-07T03:52:26;11.80;99.90
17423;DHT22;8829;47.932;7.810;2023-05-07T03:54:52;11.80;99.90
17423;DHT22;8829;47.932;7.810;2023-05-07T03:57:21;11.80;99.90
17423;DHT22;8829;47.932;7.810;2023-05-07T03:59:47;11.80;99.90
17423;DHT22;8829;47.932;7.810;2023-05-07T04:02:14;11.80;99.90
17423;DHT22;8829;47.932;7.810;2023-05-07T04:04:41;11.80;99.90
17423;DHT22;8829;47.932;7.810;2023-05-07T04:07:07;11.80;99.90
17423;DHT22;8829;47.932;7.810;2023-05-07T04:09:34;11.80;99.90
17423;DHT22;8829;47.932;7.810;2023-05-07T04:12:00;11.80;99.90
17423;DHT22;8829;47.932;7.810;2023-05-07T04:14:29;11.80;99.90
17423;DHT22;8829;47.932;7.810;2023-05-07T04:16:57;11.80;99.90
17423;DHT22;8829;47.932;7.810;2023-05-07T04:19:24;11.80;99.90
17423;DHT22;8829;47.932;7.810;2023-05-07T04:21:50;11.80;99.90
17423;DHT22;8829;47.932;7.810;2023-05-07T04:24:17;11.80;99.90
17423;DHT22;8829;47.932;7.810;2023-05-07T04:26:44;11.80;99.90
17423;DHT22;8829;47.932;7.810;2023-05-07T04:29:11;12.00;99.90
17423;DHT22;8829;47.932;7.810;2023-05-07T04:31:39;12.00;99.90
17423;DHT22;8829;47.932;7.810;2023-05-07T04:34:05;12.10;99.90
17423;DHT22;8829;47.932;7.810;2023-05-07T04:36:32;12.00;99.90
17423;DHT22;8829;47.932;7.810;2023-05-07T04:38:59;12.10;99.90
17423;DHT22;8829;47.932;7.810;2023-05-07T04:41:26;12.00;99.90
17423;DHT22;8829;47.932;7.810;2023-05-07T04:43:53;12.00;99.90
17423;DHT22;8829;47.932;7.810;2023-05-07T04:46:22;12.10;99.90
17423;DHT22;8829;47.932;7.810;2023-05-07T04:48:50;12.10;99.90
17423;DHT22;8829;47.932;7.810;2023-05-07T04:51:17;12.10;99.90
17423;DHT22;8829;47.932;7.810;2023-05-07T04:53:44;12.30;99.90
17423;DHT22;8829;47.932;7.810;2023-05-07T04:56:10;12.40;99.90
17423;DHT22;8829;47.932;7.810;2023-05-07T04:58:37;12.50;99.90
17423;DHT22;8829;47.932;7.810;2023-05-07T05:01:04;12.60;99.90
17423;DHT22;8829;47.932;7.810;2023-05-07T05:03:31;12.70;99.90
17423;DHT22;8829;47.932;7.810;2023-05-07T05:05:59;12.80;99.90
17423;DHT22;8829;47.932;7.810;2023-05-07T05:08:26;12.80;99.90
17423;DHT22;8829;47.932;7.810;2023-05-07T05:10:52;12.90;99.90
17423;DHT22;8829;47.932;7.810;2023-05-07T05:13:19;12.80;99.90
17423;DHT22;8829;47.932;7.810;2023-05-07T05:15:46;13.00;99.90
17423;DHT22;8829;47.932;7.810;2023-05-07T05:18:13;13.20;99.90
17423;DHT22;8829;47.932;7.810;2023-05-07T05:20:39;13.20;99.90
17423;DHT22;8829;47.932;7.810;2023-05-07T05:23:08;13.40;99.90
17423;DHT22;8829;47.932;7.810;2023-05-07T05:25:34;13.50;99.90
17423;DHT22;8829;47.932;7.810;2023-05-07T05:28:02;13.70;99.90
17423;DHT22;8829;47.932;7.810;2023-05-07T05:30:29;13.90;99.90
17423;DHT22;8829;47.932;7.810;2023-05-07T05:32:56;14.10;99.90
17423;DHT22;8829;47.932;7.810;2023-05-07T05:35:23;14.20;99.90
17423;DHT22;8829;47.932;7.810;2023-05-07T05:37:49;14.40;99.90
17423;DHT22;8829;47.932;7.810;2023-05-07T05:40:17;14.50;99.90
17423;DHT22;8829;47.932;7.810;2023-05-07T05:42:44;14.60;99.90
17423;DHT22;8829;47.932;7.810;2023-05-07T05:45:10;15.00;99.90
17423;DHT22;8829;47.932;7.810;2023-05-07T05:47:37;15.10;99.90
17423;DHT22;8829;47.932;7.810;2023-05-07T05:50:05;15.20;99.90
17423;DHT22;8829;47.932;7.810;2023-05-07T05:52:32;15.40;99.90
17423;DHT22;8829;47.932;7.810;2023-05-07T05:54:59;15.80;99.90
17423;DHT22;8829;47.932;7.810;2023-05-07T05:57:27;16.30;99.90
17423;DHT22;8829;47.932;7.810;2023-05-07T05:59:53;16.80;99.90
17423;DHT22;8829;47.932;7.810;2023-05-07T06:02:20;17.10;99.90
17423;DHT22;8829;47.932;7.810;2023-05-07T06:04:47;17.10;99.90
17423;DHT22;8829;47.932;7.810;2023-05-07T06:07:13;16.70;99.90
17423;DHT22;8829;47.932;7.810;2023-05-07T06:09:40;16.90;99.90
17423;DHT22;8829;47.932;7.810;2023-05-07T06:12:07;16.90;99.90
17423;DHT22;8829;47.932;7.810;2023-05-07T06:14:35;16.90;99.90
17423;DHT22;8829;47.932;7.810;2023-05-07T06:17:01;17.10;99.90
17423;DHT22;8829;47.932;7.810;2023-05-07T06:19:28;17.60;99.90
17423;DHT22;8829;47.932;7.810;2023-05-07T06:21:55;18.30;99.90
17423;DHT22;8829;47.932;7.810;2023-05-07T06:24:22;19.10;99.90
17423;DHT22;8829;47.932;7.810;2023-05-07T06:26:49;19.60;99.90
17423;DHT22;8829;47.932;7.810;2023-05-07T06:29:15;19.80;99.90
17423;DHT22;8829;47.932;7.810;2023-05-07T06:31:43;20.20;99.90
17423;DHT22;8829;47.932;7.810;2023-05-07T06:34:10;20.10;99.90
17423;DHT22;8829;47.932;7.810;2023-05-07T06:36:39;19.70;99.90
17423;DHT22;8829;47.932;7.810;2023-05-07T06:39:06;19.30;99.90
17423;DHT22;8829;47.932;7.810;2023-05-07T06:41:32;19.20;99.90
17423;DHT22;8829;47.932;7.810;2023-05-07T06:43:59;19.20;99.90
17423;DHT22;8829;47.932;7.810;2023-05-07T06:46:27;19.40;99.90
17423;DHT22;8829;47.932;7.810;2023-05-07T06:48:55;19.70;99.90
17423;DHT22;8829;47.932;7.810;2023-05-07T06:51:22;20.10;99.90
17423;DHT22;8829;47.932;7.810;2023-05-07T06:53:49;20.60;99.90
17423;DHT22;8829;47.932;7.810;2023-05-07T06:56:15;21.10;99.90
17423;DHT22;8829;47.932;7.810;2023-05-07T06:58:42;21.60;99.90
17423;DHT22;8829;47.932;7.810;2023-05-07T07:01:09;22.10;99.90
17423;DHT22;8829;47.932;7.810;2023-05-07T07:03:36;22.40;99.90
17423;DHT22;8829;47.932;7.810;2023-05-07T07:06:04;22.20;99.90
17423;DHT22;8829;47.932;7.810;2023-05-07T07:08:31;22.20;99.90
17423;DHT22;8829;47.932;7.810;2023-05-07T07:10:57;22.70;99.90
17423;DHT22;8829;47.932;7.810;2023-05-07T07:13:24;23.00;99.90
17423;DHT22;8829;47.932;7.810;2023-05-07T07:15:51;23.40;99.90
17423;DHT22;8829;47.932;7.810;2023-05-07T07:18:18;23.80;99.90
17423;DHT22;8829;47.932;7.810;2023-05-07T07:20:44;24.00;99.90
17423;DHT22;8829;47.932;7.810;2023-05-07T07:23:12;24.20;99.90
17423;DHT22;8829;47.932;7.810;2023-05-07T07:25:39;24.30;99.90
17423;DHT22;8829;47.932;7.810;2023-05-07T07:28:06;24.40;99.90
17423;DHT22;8829;47.932;7.810;2023-05-07T07:30:33;24.90;99.90
17423;DHT22;8829;47.932;7.810;2023-05-07T07:32:59;25.10;99.90
17423;DHT22;8829;47.932;7.810;2023-05-07T07:35:28;25.30;99.90
17423;DHT22;8829;47.932;7.810;2023-05-07T07:37:55;25.40;99.90
17423;DHT22;8829;47.932;7.810;2023-05-07T07:40:23;25.80;99.90
17423;DHT22;8829;47.932;7.810;2023-05-07T07:42:50;25.80;99.90
17423;DHT22;8829;47.932;7.810;2023-05-07T07:45:17;25.00;99.90
17423;DHT22;8829;47.932;7.810;2023-05-07T07:47:44;25.40;99.90
17423;DHT22;8829;47.932;7.810;2023-05-07T07:50:10;25.20;99.90
17423;DHT22;8829;47.932;7.810;2023-05-07T07:52:37;25.50;99.90
17423;DHT22;8829;47.932;7.810;2023-05-07T07:55:05;26.00;99.90
17423;DHT22;8829;47.932;7.810;2023-05-07T07:57:33;26.20;99.90
17423;DHT22;8829;47.932;7.810;2023-05-07T08:00:00;26.00;99.90
17423;DHT22;8829;47.932;7.810;2023-05-07T08:02:27;25.80;99.90
17423;DHT22;8829;47.932;7.810;2023-05-07T08:04:53;25.80;99.90
17423;DHT22;8829;47.932;7.810;2023-05-07T08:07:20;26.20;99.90
17423;DHT22;8829;47.932;7.810;2023-05-07T08:09:48;26.50;99.90
17423;DHT22;8829;47.932;7.810;2023-05-07T08:12:15;26.40;99.90
17423;DHT22;8829;47.932;7.810;2023-05-07T08:14:43;26.30;99.90
17423;DHT22;8829;47.932;7.810;2023-05-07T08:17:10;26.50;99.90
17423;DHT22;8829;47.932;7.810;2023-05-07T08:19:36;26.20;99.90
17423;DHT22;8829;47.932;7.810;2023-05-07T08:22:03;26.20;99.90
17423;DHT22;8829;47.932;7.810;2023-05-07T08:24:31;25.70;99.90
17423;DHT22;8829;47.932;7.810;2023-05-07T08:26:57;25.20;99.90
17423;DHT22;8829;47.932;7.810;2023-05-07T08:29:24;24.50;99.90
17423;DHT22;8829;47.932;7.810;2023-05-07T08:31:52;24.10;99.90
17423;DHT22;8829;47.932;7.810;2023-05-07T08:34:19;23.50;99.90
17423;DHT22;8829;47.932;7.810;2023-05-07T08:36:46;23.20;99.90
17423;DHT22;8829;47.932;7.810;2023-05-07T08:39:14;22.70;99.90
17423;DHT22;8829;47.932;7.810;2023-05-07T08:41:43;22.70;99.90
17423;DHT22;8829;47.932;7.810;2023-05-07T08:44:12;22.90;99.90
17423;DHT22;8829;47.932;7.810;2023-05-07T08:46:39;23.00;99.90
17423;DHT22;8829;47.932;7.810;2023-05-07T08:49:10;23.40;99.90
17423;DHT22;8829;47.932;7.810;2023-05-07T08:51:37;23.50;99.90
17423;DHT22;8829;47.932;7.810;2023-05-07T08:54:04;23.60;99.90
17423;DHT22;8829;47.932;7.810;2023-05-07T08:56:32;23.70;99.90
17423;DHT22;8829;47.932;7.810;2023-05-07T08:58:58;23.50;99.90
17423;DHT22;8829;47.932;7.810;2023-05-07T09:01:25;23.70;99.90
17423;DHT22;8829;47.932;7.810;2023-05-07T09:03:53;23.90;99.90
17423;DHT22;8829;47.932;7.810;2023-05-07T09:06:21;24.00;99.90
17423;DHT22;8829;47.932;7.810;2023-05-07T09:08:51;24.10;99.90
17423;DHT22;8829;47.932;7.810;2023-05-07T09:11:20;23.80;99.90
17423;DHT22;8829;47.932;7.810;2023-05-07T09:13:48;23.80;99.90
17423;DHT22;8829;47.932;7.810;2023-05-07T09:16:16;23.90;99.90
17423;DHT22;8829;47.932;7.810;2023-05-07T09:18:43;23.40;99.90
17423;DHT22;8829;47.932;7.810;2023-05-07T09:21:10;23.40;99.90
17423;DHT22;8829;47.932;7.810;2023-05-07T09:23:39;23.40;99.90
17423;DHT22;8829;47.932;7.810;2023-05-07T09:26:06;23.20;99.90
17423;DHT22;8829;47.932;7.810;2023-05-07T09:28:38;23.10;99.90
17423;DHT22;8829;47.932;7.810;2023-05-07T09:31:06;22.70;99.90
17423;DHT22;8829;47.932;7.810;2023-05-07T09:33:32;22.80;99.90
17423;DHT22;8829;47.932;7.810;2023-05-07T09:36:02;22.70;99.90
17423;DHT22;8829;47.932;7.810;2023-05-07T09:38:30;22.40;99.90
17423;DHT22;8829;47.932;7.810;2023-05-07T09:41:03;22.00;99.90
17423;DHT22;8829;47.932;7.810;2023-05-07T09:43:32;22.10;99.90
17423;DHT22;8829;47.932;7.810;2023-05-07T09:46:06;22.10;99.90
17423;DHT22;8829;47.932;7.810;2023-05-07T09:48:38;22.10;99.90
17423;DHT22;8829;47.932;7.810;2023-05-07T09:51:11;21.70;99.90
17423;DHT22;8829;47.932;7.810;2023-05-07T09:53:41;21.30;99.90
17423;DHT22;8829;47.932;7.810;2023-05-07T09:56:09;20.90;99.90
17423;DHT22;8829;47.932;7.810;2023-05-07T09:58:38;20.50;99.90
17423;DHT22;8829;47.932;7.810;2023-05-07T10:01:06;20.40;99.90
17423;DHT22;8829;47.932;7.810;2023-05-07T10:03:35;20.00;99.90
17423;DHT22;8829;47.932;7.810;2023-05-07T10:06:04;19.60;99.90
17423;DHT22;8829;47.932;7.810;2023-05-07T10:08:31;19.40;99.90
17423;DHT22;8829;47.932;7.810;2023-05-07T10:10:59;19.00;99.90
17423;DHT22;8829;47.932;7.810;2023-05-07T10:13:29;18.90;99.90
17423;DHT22;8829;47.932;7.810;2023-05-07T10:15:56;18.50;99.90
17423;DHT22;8829;47.932;7.810;2023-05-07T10:18:23;18.40;99.90
17423;DHT22;8829;47.932;7.810;2023-05-07T10:21:00;18.20;99.90
17423;DHT22;8829;47.932;7.810;2023-05-07T10:23:29;18.00;99.90
17423;DHT22;8829;47.932;7.810;2023-05-07T10:25:58;18.00;99.90
17423;DHT22;8829;47.932;7.810;2023-05-07T10:28:29;17.90;99.90
17423;DHT22;8829;47.932;7.810;2023-05-07T10:31:09;18.00;99.90
17423;DHT22;8829;47.932;7.810;2023-05-07T10:33:39;18.00;99.90
17423;DHT22;8829;47.932;7.810;2023-05-07T10:36:06;18.10;99.90
17423;DHT22;8829;47.932;7.810;2023-05-07T10:38:33;18.10;99.90
17423;DHT22;8829;47.932;7.810;2023-05-07T10:41:00;18.00;99.90
17423;DHT22;8829;47.932;7.810;2023-05-07T10:43:40;18.20;99.90
17423;DHT22;8829;47.932;7.810;2023-05-07T10:46:11;18.40;99.90
17423;DHT22;8829;47.932;7.810;2023-05-07T10:49:10;18.60;99.90
17423;DHT22;8829;47.932;7.810;2023-05-07T10:51:41;18.90;99.90
17423;DHT22;8829;47.932;7.810;2023-05-07T10:54:21;19.30;99.90
17423;DHT22;8829;47.932;7.810;2023-05-07T10:56:49;19.70;99.90
17423;DHT22;8829;47.932;7.810;2023-05-07T10:59:36;20.00;99.90
17423;DHT22;8829;47.932;7.810;2023-05-07T11:02:08;20.10;99.90
17423;DHT22;8829;47.932;7.810;2023-05-07T11:04:36;20.40;99.90
17423;DHT22;8829;47.932;7.810;2023-05-07T11:07:34;20.60;99.90
17423;DHT22;8829;47.932;7.810;2023-05-07T11:10:02;20.70;99.90
17423;DHT22;8829;47.932;7.810;2023-05-07T11:12:49;20.90;99.90
17423;DHT22;8829;47.932;7.810;2023-05-07T11:15:36;21.10;99.90
17423;DHT22;8829;47.932;7.810;2023-05-07T11:18:04;21.30;99.90
17423;DHT22;8829;47.932;7.810;2023-05-07T11:20:54;20.90;99.90
17423;DHT22;8829;47.932;7.810;2023-05-07T11:23:54;20.90;99.90
17423;DHT22;8829;47.932;7.810;2023-05-07T11:26:22;21.00;99.90
17423;DHT22;8829;47.932;7.810;2023-05-07T11:28:49;21.30;99.90
17423;DHT22;8829;47.932;7.810;2023-05-07T11:31:21;21.40;99.90
17423;DHT22;8829;47.932;7.810;2023-05-07T11:33:48;21.40;99.90
17423;DHT22;8829;47.932;7.810;2023-05-07T11:36:15;21.40;99.90
17423;DHT22;8829;47.932;7.810;2023-05-07T11:38:42;21.30;99.90
17423;DHT22;8829;47.932;7.810;2023-05-07T11:41:08;21.40;99.90
17423;DHT22;8829;47.932;7.810;2023-05-07T11:43:35;21.50;99.90
17423;DHT22;8829;47.932;7.810;2023-05-07T11:46:07;21.40;99.90
17423;DHT22;8829;47.932;7.810;2023-05-07T11:48:35;21.40;99.90
17423;DHT22;8829;47.932;7.810;2023-05-07T11:51:03;20.90;99.90
17423;DHT22;8829;47.932;7.810;2023-05-07T11:53:36;20.90;99.90
17423;DHT22;8829;47.932;7.810;2023-05-07T11:56:06;20.90;99.90
17423;DHT22;8829;47.932;7.810;2023-05-07T11:58:33;20.80;99.90
17423;DHT22;8829;47.932;7.810;2023-05-07T12:00:59;20.80;99.90
17423;DHT22;8829;47.932;7.810;2023-05-07T12:03:26;21.00;99.90
17423;DHT22;8829;47.932;7.810;2023-05-07T12:05:54;21.20;99.90
17423;DHT22;8829;47.932;7.810;2023-05-07T12:08:22;21.20;99.90
17423;DHT22;8829;47.932;7.810;2023-05-07T12:10:49;21.30;99.90
17423;DHT22;8829;47.932;7.810;2023-05-07T12:13:16;21.30;99.90
17423;DHT22;8829;47.932;7.810;2023-05-07T12:15:44;21.20;99.90
17423;DHT22;8829;47.932;7.810;2023-05-07T12:18:11;21.20;99.90
17423;DHT22;8829;47.932;7.810;2023-05-07T12:20:39;21.30;99.90
17423;DHT22;8829;47.932;7.810;2023-05-07T12:23:07;21.40;99.90
17423;DHT22;8829;47.932;7.810;2023-05-07T12:25:34;21.30;99.90
17423;DHT22;8829;47.932;7.810;2023-05-07T12:28:02;21.20;99.90
17423;DHT22;8829;47.932;7.810;2023-05-07T12:30:30;21.20;99.90
17423;DHT22;8829;47.932;7.810;2023-05-07T12:32:57;21.20;99.90
17423;DHT22;8829;47.932;7.810;2023-05-07T12:35:27;21.00;99.90
17423;DHT22;8829;47.932;7.810;2023-05-07T12:37:58;21.00;99.90
17423;DHT22;8829;47.932;7.810;2023-05-07T12:40:35;21.00;99.90
17423;DHT22;8829;47.932;7.810;2023-05-07T12:43:02;21.00;99.90
17423;DHT22;8829;47.932;7.810;2023-05-07T12:45:29;20.80;99.90
17423;DHT22;8829;47.932;7.810;2023-05-07T12:47:57;20.80;99.90
17423;DHT22;8829;47.932;7.810;2023-05-07T12:50:31;21.00;99.90
17423;DHT22;8829;47.932;7.810;2023-05-07T12:52:58;20.90;99.90
17423;DHT22;8829;47.932;7.810;2023-05-07T12:55:26;21.00;99.90
17423;DHT22;8829;47.932;7.810;2023-05-07T12:57:55;21.00;99.90
17423;DHT22;8829;47.932;7.810;2023-05-07T13:00:35;21.10;99.90
17423;DHT22;8829;47.932;7.810;2023-05-07T13:03:02;21.10;99.90
17423;DHT22;8829;47.932;7.810;2023-05-07T13:05:30;21.00;99.90
17423;DHT22;8829;47.932;7.810;2023-05-07T13:07:57;20.80;99.90
17423;DHT22;8829;47.932;7.810;2023-05-07T13:10:27;20.70;99.90
17423;DHT22;8829;47.932;7.810;2023-05-07T13:12:55;20.60;99.90
17423;DHT22;8829;47.932;7.810;2023-05-07T13:15:21;20.60;99.90
17423;DHT22;8829;47.932;7.810;2023-05-07T13:17:48;20.50;99.90
17423;DHT22;8829;47.932;7.810;2023-05-07T13:20:15;20.50;99.90
17423;DHT22;8829;47.932;7.810;2023-05-07T13:22:42;20.60;99.90
17423;DHT22;8829;47.932;7.810;2023-05-07T13:25:09;20.50;99.90
17423;DHT22;8829;47.932;7.810;2023-05-07T13:27:37;20.50;99.90
17423;DHT22;8829;47.932;7.810;2023-05-07T13:30:04;20.50;99.90
17423;DHT22;8829;47.932;7.810;2023-05-07T13:32:32;20.70;99.90
17423;DHT22;8829;47.932;7.810;2023-05-07T13:34:58;20.80;99.90
17423;DHT22;8829;47.932;7.810;2023-05-07T13:37:25;20.90;99.90
17423;DHT22;8829;47.932;7.810;2023-05-07T13:39:52;20.60;99.90
17423;DHT22;8829;47.932;7.810;2023-05-07T13:42:19;20.70;99.90
17423;DHT22;8829;47.932;7.810;2023-05-07T13:44:47;20.80;99.90
17423;DHT22;8829;47.932;7.810;2023-05-07T13:47:13;20.80;99.90
17423;DHT22;8829;47.932;7.810;2023-05-07T13:49:40;20.90;99.90
17423;DHT22;8829;47.932;7.810;2023-05-07T13:52:06;20.90;99.90
17423;DHT22;8829;47.932;7.810;2023-05-07T13:54:33;20.70;99.90
17423;DHT22;8829;47.932;7.810;2023-05-07T13:57:00;20.40;99.90
17423;DHT22;8829;47.932;7.810;2023-05-07T13:59:27;20.50;99.90
17423;DHT22;8829;47.932;7.810;2023-05-07T14:01:55;20.30;99.90
17423;DHT22;8829;47.932;7.810;2023-05-07T14:04:22;19.80;99.90
17423;DHT22;8829;47.932;7.810;2023-05-07T14:06:48;19.90;99.90
17423;DHT22;8829;47.932;7.810;2023-05-07T14:09:15;20.10;99.90
17423;DHT22;8829;47.932;7.810;2023-05-07T14:11:41;20.40;99.90
17423;DHT22;8829;47.932;7.810;2023-05-07T14:14:08;20.50;99.90
17423;DHT22;8829;47.932;7.810;2023-05-07T14:16:36;20.70;99.90
17423;DHT22;8829;47.932;7.810;2023-05-07T14:19:04;20.80;99.90
17423;DHT22;8829;47.932;7.810;2023-05-07T14:21:30;20.90;99.90
17423;DHT22;8829;47.932;7.810;2023-05-07T14:23:57;21.00;99.90
17423;DHT22;8829;47.932;7.810;2023-05-07T14:26:25;21.20;99.90
17423;DHT22;8829;47.932;7.810;2023-05-07T14:28:52;21.40;99.90
17423;DHT22;8829;47.932;7.810;2023-05-07T14:31:20;21.50;99.90
17423;DHT22;8829;47.932;7.810;2023-05-07T14:33:47;20.80;99.90
17423;DHT22;8829;47.932;7.810;2023-05-07T14:36:16;20.60;99.90
17423;DHT22;8829;47.932;7.810;2023-05-07T14:38:45;20.80;99.90
17423;DHT22;8829;47.932;7.810;2023-05-07T14:41:11;21.10;99.90
17423;DHT22;8829;47.932;7.810;2023-05-07T14:43:38;21.20;99.90
17423;DHT22;8829;47.932;7.810;2023-05-07T14:46:05;21.30;99.90
17423;DHT22;8829;47.932;7.810;2023-05-07T14:48:31;21.50;99.90
17423;DHT22;8829;47.932;7.810;2023-05-07T14:50:58;21.50;99.90
17423;DHT22;8829;47.932;7.810;2023-05-07T14:53:26;21.50;99.90
17423;DHT22;8829;47.932;7.810;2023-05-07T14:55:53;21.60;99.90
17423;DHT22;8829;47.932;7.810;2023-05-07T14:58:20;21.50;99.90
17423;DHT22;8829;47.932;7.810;2023-05-07T15:00:46;21.70;99.90
17423;DHT22;8829;47.932;7.810;2023-05-07T15:03:14;21.70;99.90
17423;DHT22;8829;47.932;7.810;2023-05-07T15:05:40;21.60;99.90
17423;DHT22;8829;47.932;7.810;2023-05-07T15:08:07;21.40;99.90
17423;DHT22;8829;47.932;7.810;2023-05-07T15:10:37;21.40;99.90
17423;DHT22;8829;47.932;7.810;2023-05-07T15:13:06;21.30;99.90
17423;DHT22;8829;47.932;7.810;2023-05-07T15:15:33;21.10;99.90
17423;DHT22;8829;47.932;7.810;2023-05-07T15:18:00;21.00;99.90
17423;DHT22;8829;47.932;7.810;2023-05-07T15:20:27;21.00;99.90
17423;DHT22;8829;47.932;7.810;2023-05-07T15:22:53;21.20;99.90
17423;DHT22;8829;47.932;7.810;2023-05-07T15:25:20;21.20;99.90
17423;DHT22;8829;47.932;7.810;2023-05-07T15:27:48;21.00;99.90
17423;DHT22;8829;47.932;7.810;2023-05-07T15:30:15;20.80;99.90
17423;DHT22;8829;47.932;7.810;2023-05-07T15:32:42;20.80;99.90
17423;DHT22;8829;47.932;7.810;2023-05-07T15:35:09;20.80;99.90
17423;DHT22;8829;47.932;7.810;2023-05-07T15:37:36;20.80;99.90
17423;DHT22;8829;47.932;7.810;2023-05-07T15:40:05;20.80;99.90
17423;DHT22;8829;47.932;7.810;2023-05-07T15:42:33;20.70;99.90
17423;DHT22;8829;47.932;7.810;2023-05-07T15:45:01;20.90;99.90
17423;DHT22;8829;47.932;7.810;2023-05-07T15:47:29;21.00;99.90
17423;DHT22;8829;47.932;7.810;2023-05-07T15:49:58;21.00;99.90